Doniphan, MO

7:59 PM CDT on October 24, 2014 (GMT -0500)
RAWS DONIPHAN MO US | Change Station
CLOSE
Current Station
Personal Weather Station
Location: Doniphan, MO
Elevation: 634 ft
Nearby Weather Stations

Elev 634 ft 36.63 °N, 90.82 °W | Updated 1 hour ago

Clear
Clear
62 °F
Feels Like 62 °F
N
0
Wind Variable Wind from North
Gusts 2.0 mph

Today
High -- | Low -- °F
--% Chance of Precip.
Yesterday
High -- | Low -- °F
Precip. -- in
7:18 AM 6:15 PM
New Moon, 1% visible
Pressure 30.06 in
Visibility 10.0 miles
Clouds Clear
Dew Point 57 °F
Humidity 85%
Rainfall 0.00 in
Snow Depth Not available.
UV 0 out of 12
Pollen 1.80 out of 12
Air Quality Not available.
Flu Activity No Activity
METAR K4M9 250035Z AUTO 17005KT 10SM CLR 17/14 A3006 RMK AO2

More Conditions Fewer Conditions

Pressure 30.06 in
Visibility 10.0 miles
Clouds Clear
Dew Point 57 °F
Humidity 85%
Rainfall 0.00 in
Snow Depth Not available.
UV 0 out of 12
Pollen 1.80 out of 12
Air Quality Not available.
Flu Activity No Activity
METAR K4M9 250035Z AUTO 17005KT 10SM CLR 17/14 A3006 RMK AO2

More Conditions Fewer Conditions

10-Day Weather Forecast

Almanac

Astronomy

Oct. 24, 2014 Rise Set
Actual Time 7:18 AM CDT 6:15 PM CDT
Civil Twilight 6:52 AM CDT 6:41 PM CDT
Nautical Twilight 6:22 AM CDT 7:11 PM CDT
Astronomical Twilight 5:52 AM CDT 7:41 PM CDT
Moon 7:57 AM CDT (10/24) 6:56 PM CDT (10/24)
Length of Visible Light 11h 49m
Length of Day
10h 56m
Tomorrow will be 2m 8s shorter.
New Moon, 1% of the Moon is Illuminated
Today
New Moon
Oct 30
First Quarter
Nov 6
Full
Nov 14
Last Quarter
Nov 22
New

Today's Extremes

State Highs State Lows

Community

WunderPhotos

Upload Photos

1,764,735 photos uploaded!

WunderBlogs® & News

Nearby

Snow Depth

Station Depth Elevation
No new snow has been reported.

Earthquake Activity

City Distance Mag. Time & Date
No recent earthquake activity has been reported nearby.
Minimum magnitude displayed is 2.5.

Coastal Water Temperatures

Place Temperature
No Stations Reporting

Nearby Weather Stations